KMKL/MKL METAR and TAF weather

Enter ICAO airport designator
Station Type Date Time Source
KMKL METAR 2022/06/30 00:53 UTC NOAA

KMKL 300053Z AUTO 03004KT 10SM CLR 29/17 A3013 RMK AO2 SLPNO T02940167


Station Type Date Time Source
KMKL Decoded METAR 2022/06/30 00:53 UTC NOAA

JACKSON MCKELLAR-SIPES RGNL, TN, United States (KMKL) 35-36N 088-55W 128M
Jun 29, 2022 - 08:53 PM EDT / 2022.06.30 0053 UTC
Wind: from the NNE (030 degrees) at 5 MPH (4 KT):0
Visibility: 10 mile(s):0
Sky conditions: clear
Temperature: 84.9 F (29.4 C)
Dew Point: 62.1 F (16.7 C)
Relative Humidity: 46%
Pressure (altimeter): 30.13 in. Hg (1020 hPa)
ob: KMKL 300053Z AUTO 03004KT 10SM CLR 29/17 A3013 RMK AO2 SLPNO T02940167
cycle: 1

Station Type Date Time Source
KMKL TAF 2022/06/29 18:39 UTC NOAA

TAF KMKL 291736Z 2918/3018 05005KT P6SM FEW060
FM300500 00000KT P6SM SCT060 SCT250
FM301400 18006KT P6SM SCT060

Example: see airport list